createdAt,value
2022-10-23T00:01:16.566Z,100.00
2022-10-23T00:03:45.639Z,100.00
2022-10-23T00:06:15.012Z,100.00
2022-10-23T00:08:43.375Z,100.00
2022-10-23T00:11:13.434Z,100.00
2022-10-23T00:13:43.172Z,100.00
2022-10-23T00:16:11.929Z,100.00
2022-10-23T00:18:41.065Z,100.00
2022-10-23T00:21:12.017Z,100.00
2022-10-23T00:23:40.673Z,100.00
2022-10-23T00:26:11.182Z,100.00
2022-10-23T00:28:39.247Z,100.00
2022-10-23T00:31:08.722Z,100.00
2022-10-23T00:33:37.699Z,100.00
2022-10-23T00:36:07.509Z,100.00
2022-10-23T00:38:36.230Z,100.00
2022-10-23T00:41:04.864Z,100.00
2022-10-23T00:43:34.576Z,100.00
2022-10-23T00:46:03.080Z,100.00
2022-10-23T00:48:32.467Z,100.00
2022-10-23T00:51:00.741Z,100.00
2022-10-23T00:53:28.775Z,100.00
2022-10-23T00:55:57.760Z,100.00
2022-10-23T00:58:25.679Z,100.00
2022-10-23T01:00:55.757Z,100.00
2022-10-23T01:03:27.268Z,100.00
2022-10-23T01:06:09.850Z,100.00
2022-10-23T01:08:45.577Z,100.00
2022-10-23T01:11:18.593Z,100.00
2022-10-23T01:13:56.287Z,100.00
2022-10-23T01:16:32.218Z,100.00
2022-10-23T01:19:10.616Z,100.00
2022-10-23T01:21:50.499Z,100.00
2022-10-23T01:24:32.240Z,100.00
2022-10-23T01:27:23.731Z,100.00
2022-10-23T01:30:03.296Z,100.00
2022-10-23T01:32:40.483Z,100.00
2022-10-23T01:35:14.261Z,100.00
2022-10-23T01:37:46.296Z,100.00
2022-10-23T01:40:21.526Z,100.00
2022-10-23T01:42:53.813Z,100.00
2022-10-23T01:45:30.099Z,100.00
2022-10-23T01:47:58.829Z,100.00
2022-10-23T01:50:29.172Z,100.00
2022-10-23T01:52:57.361Z,100.00
2022-10-23T01:55:26.875Z,100.00
2022-10-23T01:57:55.840Z,100.00
2022-10-23T02:00:25.379Z,100.00
2022-10-23T02:02:54.305Z,100.00
2022-10-23T02:05:25.777Z,100.00
2022-10-23T02:07:54.873Z,100.00
2022-10-23T02:10:27.588Z,100.00
2022-10-23T02:13:01.420Z,100.00
2022-10-23T02:15:35.987Z,100.00
2022-10-23T02:18:09.708Z,100.00
2022-10-23T02:20:41.734Z,100.00
2022-10-23T02:23:20.447Z,100.00
2022-10-23T02:25:54.627Z,100.00
2022-10-23T02:28:28.989Z,100.00
2022-10-23T02:31:01.480Z,100.00
2022-10-23T02:33:31.740Z,100.00
2022-10-23T02:35:59.762Z,100.00
2022-10-23T02:38:31.771Z,100.00
2022-10-23T02:41:10.962Z,100.00
2022-10-23T02:43:46.863Z,100.00
2022-10-23T02:46:23.404Z,100.00
2022-10-23T02:48:59.810Z,92.09
2022-10-23T02:51:35.111Z,89.54
2022-10-23T02:54:08.801Z,82.66
2022-10-23T02:56:42.240Z,79.51
2022-10-23T02:59:16.601Z,79.31
2022-10-23T03:01:52.149Z,77.88
2022-10-23T03:04:24.985Z,76.67
2022-10-23T03:06:53.660Z,76.32
2022-10-23T03:09:21.669Z,77.04
2022-10-23T03:11:49.612Z,74.40
2022-10-23T03:14:17.490Z,73.18
2022-10-23T03:16:46.783Z,72.41
2022-10-23T03:19:14.902Z,71.29
2022-10-23T03:21:42.833Z,71.11
2022-10-23T03:24:10.731Z,71.28
2022-10-23T03:26:38.711Z,69.57
2022-10-23T03:29:06.694Z,71.21
2022-10-23T03:31:34.659Z,69.57
2022-10-23T03:34:07.511Z,69.16
2022-10-23T03:36:36.674Z,68.94
2022-10-23T03:39:05.195Z,69.62
2022-10-23T03:41:33.745Z,70.35
2022-10-23T03:44:01.803Z,72.00
2022-10-23T03:46:29.930Z,73.73
2022-10-23T03:48:58.998Z,73.43
2022-10-23T03:51:28.975Z,73.35
2022-10-23T03:53:57.235Z,80.14
2022-10-23T03:56:28.020Z,80.58
2022-10-23T03:58:55.911Z,82.39
2022-10-23T04:01:23.984Z,79.38
2022-10-23T04:03:52.000Z,73.17
2022-10-23T04:06:19.973Z,70.75
2022-10-23T04:08:49.446Z,67.63
2022-10-23T04:11:17.405Z,64.45
2022-10-23T04:13:45.315Z,65.11
2022-10-23T04:16:13.336Z,64.74
2022-10-23T04:18:41.824Z,66.29
2022-10-23T04:21:09.926Z,65.49
2022-10-23T04:23:37.927Z,67.09
2022-10-23T04:26:07.436Z,66.90
2022-10-23T04:28:35.531Z,67.85
2022-10-23T04:31:03.640Z,66.47
2022-10-23T04:33:31.518Z,65.94
2022-10-23T04:35:59.472Z,63.83
2022-10-23T04:38:27.411Z,62.87
2022-10-23T04:40:55.390Z,63.50
2022-10-23T04:43:24.748Z,62.91
2022-10-23T04:45:52.705Z,63.66
2022-10-23T04:48:23.384Z,62.80
2022-10-23T04:50:57.956Z,62.36
2022-10-23T04:53:26.314Z,61.32
2022-10-23T04:55:55.824Z,62.30
2022-10-23T04:58:26.065Z,65.76
2022-10-23T05:00:54.252Z,66.45
2022-10-23T05:03:23.323Z,67.80
2022-10-23T05:05:54.040Z,69.22
2022-10-23T05:08:22.419Z,68.03
2022-10-23T05:10:50.803Z,71.06
2022-10-23T05:13:20.058Z,74.02
2022-10-23T05:15:50.533Z,73.70
2022-10-23T05:18:21.780Z,76.55
2022-10-23T05:20:52.028Z,77.75
2022-10-23T05:23:23.803Z,69.85
2022-10-23T05:25:51.722Z,68.70
2022-10-23T05:28:19.777Z,67.25
2022-10-23T05:30:49.613Z,64.88
2022-10-23T05:33:17.691Z,65.93
2022-10-23T05:35:46.444Z,66.58
2022-10-23T05:38:15.955Z,65.53
2022-10-23T05:40:43.900Z,65.41
2022-10-23T05:43:11.822Z,64.46
2022-10-23T05:45:39.707Z,65.04
2022-10-23T05:48:11.316Z,65.05
2022-10-23T05:50:50.412Z,65.84
2022-10-23T05:53:18.453Z,64.58
2022-10-23T05:55:46.381Z,64.13
2022-10-23T05:58:14.346Z,65.64
2022-10-23T06:00:42.256Z,66.38
2022-10-23T06:03:11.577Z,66.80
2022-10-23T06:05:41.815Z,69.29
2022-10-23T06:08:09.897Z,74.01
2022-10-23T06:10:38.071Z,76.48
2022-10-23T06:13:07.117Z,81.41
2022-10-23T06:15:35.152Z,81.00
2022-10-23T06:18:05.426Z,82.66
2022-10-23T06:20:37.387Z,84.51
2022-10-23T06:23:05.504Z,83.39
2022-10-23T06:25:33.485Z,86.84
2022-10-23T06:28:01.467Z,89.85
2022-10-23T06:30:29.441Z,81.01
2022-10-23T06:32:57.388Z,77.23
2022-10-23T06:35:25.539Z,70.25
2022-10-23T06:37:54.810Z,70.31
2022-10-23T06:40:22.798Z,69.71
2022-10-23T06:42:50.753Z,68.23
2022-10-23T06:45:18.673Z,67.01
2022-10-23T06:47:46.688Z,66.70
2022-10-23T06:50:15.644Z,65.75
2022-10-23T06:52:47.016Z,63.87
2022-10-23T06:55:17.155Z,63.19
2022-10-23T06:57:45.845Z,62.44
2022-10-23T07:00:14.872Z,62.12
2022-10-23T07:02:42.999Z,62.89
2022-10-23T07:05:13.561Z,62.50
2022-10-23T07:07:41.963Z,62.71
2022-10-23T07:10:10.246Z,61.48
2022-10-23T07:12:39.870Z,61.68
2022-10-23T07:15:09.274Z,61.44
2022-10-23T07:17:37.198Z,61.94
2022-10-23T07:20:05.719Z,61.37
2022-10-23T07:22:33.739Z,60.31
2022-10-23T07:25:01.667Z,61.46
2022-10-23T07:27:29.658Z,61.08
2022-10-23T07:29:58.982Z,61.38
2022-10-23T07:32:28.887Z,61.50
2022-10-23T07:34:56.818Z,62.03
2022-10-23T07:37:24.899Z,62.73
2022-10-23T07:39:52.857Z,64.52
2022-10-23T07:42:20.785Z,63.98
2022-10-23T07:44:48.714Z,64.80
2022-10-23T07:47:18.160Z,65.97
2022-10-23T07:49:53.372Z,66.54
2022-10-23T07:52:21.462Z,66.51
2022-10-23T07:54:52.899Z,70.58
2022-10-23T07:57:21.280Z,69.00
2022-10-23T07:59:49.738Z,70.09
2022-10-23T08:02:19.237Z,71.08
2022-10-23T08:04:50.379Z,76.09
2022-10-23T08:07:18.584Z,77.32
2022-10-23T08:09:46.667Z,75.06
2022-10-23T08:12:14.748Z,75.37
2022-10-23T08:14:42.666Z,86.55
2022-10-23T08:17:11.384Z,79.76
2022-10-23T08:19:40.761Z,78.78
2022-10-23T08:22:08.683Z,79.60
2022-10-23T08:24:36.628Z,81.02
2022-10-23T08:27:04.731Z,78.07
2022-10-23T08:29:32.704Z,70.06
2022-10-23T08:32:00.660Z,64.25
2022-10-23T08:34:28.763Z,63.96
2022-10-23T08:36:58.057Z,58.93
2022-10-23T08:39:25.979Z,56.24
2022-10-23T08:41:54.613Z,54.84
2022-10-23T08:44:28.085Z,54.66
2022-10-23T08:47:03.294Z,55.69
2022-10-23T08:49:37.974Z,54.27
2022-10-23T08:52:16.947Z,53.66
2022-10-23T08:54:58.236Z,53.67
2022-10-23T08:57:33.287Z,53.03
2022-10-23T09:00:08.372Z,52.87
2022-10-23T09:02:41.978Z,52.34
2022-10-23T09:05:16.558Z,53.63
2022-10-23T09:08:00.909Z,55.93
2022-10-23T09:11:02.656Z,57.21
2022-10-23T09:13:50.124Z,57.88
2022-10-23T09:16:28.696Z,58.49
2022-10-23T09:18:58.375Z,59.98
2022-10-23T09:21:28.667Z,58.39
2022-10-23T09:23:58.289Z,58.27
2022-10-23T09:26:26.190Z,57.98
2022-10-23T09:29:03.384Z,57.98
2022-10-23T09:31:31.519Z,57.33
2022-10-23T09:34:01.328Z,56.79
2022-10-23T09:36:30.479Z,55.35
2022-10-23T09:39:01.649Z,57.90
2022-10-23T09:41:32.281Z,58.19
2022-10-23T09:44:16.794Z,58.26
2022-10-23T09:49:21.631Z,57.25
2022-10-23T09:51:55.235Z,55.65
2022-10-23T09:54:25.186Z,57.42
2022-10-23T09:56:55.335Z,56.59
2022-10-23T09:59:27.825Z,57.78
2022-10-23T10:01:58.548Z,56.82
2022-10-23T10:04:35.030Z,56.32
2022-10-23T10:07:04.591Z,54.82
2022-10-23T10:09:34.517Z,52.02
2022-10-23T10:12:21.117Z,51.92
2022-10-23T10:15:02.503Z,51.45
2022-10-23T10:17:38.957Z,51.99
2022-10-23T10:20:58.710Z,50.96
2022-10-23T10:23:34.339Z,50.53
2022-10-23T10:26:16.647Z,50.08
2022-10-23T10:29:01.193Z,49.61
2022-10-23T10:31:42.982Z,50.64
2022-10-23T10:34:18.604Z,49.48
2022-10-23T10:36:52.285Z,49.35
2022-10-23T10:39:32.805Z,50.22
2022-10-23T10:42:25.724Z,49.28
2022-10-23T10:45:16.939Z,50.25
2022-10-23T10:47:56.651Z,50.36
2022-10-23T10:50:29.712Z,50.12
2022-10-23T10:53:08.581Z,50.87
2022-10-23T10:55:40.361Z,50.36
2022-10-23T10:58:17.511Z,51.76
2022-10-23T11:00:47.820Z,50.46
2022-10-23T11:03:29.305Z,51.13
2022-10-23T11:08:49.842Z,50.76
2022-10-23T11:11:31.352Z,51.00
2022-10-23T11:14:00.879Z,50.73
2022-10-23T11:16:31.153Z,50.81
2022-10-23T11:19:11.387Z,50.66
2022-10-23T11:21:45.408Z,50.17
2022-10-23T11:24:40.688Z,50.28
2022-10-23T11:27:34.681Z,50.42
2022-10-23T11:30:19.547Z,50.92
2022-10-23T11:33:03.697Z,51.42
2022-10-23T11:35:49.443Z,50.60
2022-10-23T11:38:21.398Z,51.31
2022-10-23T11:40:52.940Z,51.36
2022-10-23T11:43:28.745Z,50.80
2022-10-23T11:45:58.439Z,50.91
2022-10-23T11:48:38.198Z,50.44
2022-10-23T11:51:29.719Z,51.77
2022-10-23T11:54:24.810Z,50.99
2022-10-23T11:56:56.748Z,51.50
2022-10-23T11:59:28.947Z,51.01
2022-10-23T12:02:01.079Z,50.82
2022-10-23T12:04:39.084Z,51.94
2022-10-23T12:07:17.640Z,52.08
2022-10-23T12:09:48.100Z,50.55
2022-10-23T12:12:28.274Z,50.79
2022-10-23T12:15:20.053Z,51.83
2022-10-23T12:17:51.462Z,52.11
2022-10-23T12:20:31.760Z,52.25
2022-10-23T12:23:16.049Z,52.82
2022-10-23T12:25:58.717Z,51.13
2022-10-23T12:28:36.040Z,52.07
2022-10-23T12:31:18.742Z,51.27
2022-10-23T12:34:00.764Z,51.70
2022-10-23T12:36:48.435Z,52.67
2022-10-23T12:39:30.221Z,52.14
2022-10-23T12:41:59.107Z,52.13
2022-10-23T12:44:28.310Z,52.10
2022-10-23T12:46:59.619Z,51.91
2022-10-23T12:49:31.544Z,50.87
2022-10-23T12:52:01.739Z,52.64
2022-10-23T12:54:32.199Z,51.21
2022-10-23T12:57:00.711Z,51.39
2022-10-23T12:59:34.467Z,51.17
2022-10-23T13:02:02.515Z,52.29
2022-10-23T13:04:34.551Z,50.90
2022-10-23T13:07:04.137Z,48.88
2022-10-23T13:09:35.901Z,50.20
2022-10-23T13:12:06.430Z,48.98
2022-10-23T13:14:40.633Z,50.75
2022-10-23T13:17:12.768Z,52.63
2022-10-23T13:19:42.092Z,53.83
2022-10-23T13:22:20.569Z,53.31
2022-10-23T13:24:49.471Z,52.73
2022-10-23T13:27:27.525Z,53.70
2022-10-23T13:29:55.521Z,53.34
2022-10-23T13:32:25.184Z,53.51
2022-10-23T13:35:04.129Z,54.72
2022-10-23T13:40:25.067Z,52.52
2022-10-23T13:42:54.602Z,54.29
2022-10-23T13:45:25.549Z,53.45
2022-10-23T13:47:53.753Z,53.37
2022-10-23T13:50:23.056Z,53.47
2022-10-23T13:52:51.022Z,53.79
2022-10-23T13:55:23.504Z,54.06
2022-10-23T13:57:51.876Z,51.21
2022-10-23T14:00:20.152Z,49.43
2022-10-23T14:02:48.133Z,50.11
2022-10-23T14:05:16.296Z,49.60
2022-10-23T14:07:45.962Z,48.70
2022-10-23T14:10:14.215Z,47.55
2022-10-23T14:12:43.083Z,48.72
2022-10-23T14:15:12.781Z,49.33
2022-10-23T14:17:40.778Z,49.80
2022-10-23T14:20:10.074Z,51.80
2022-10-23T14:22:38.919Z,51.49
2022-10-23T14:25:08.996Z,48.66
2022-10-23T14:27:39.528Z,50.27
2022-10-23T14:30:08.853Z,49.72
2022-10-23T14:32:37.012Z,47.99
2022-10-23T14:35:05.842Z,47.83
2022-10-23T14:37:34.499Z,48.30
2022-10-23T14:40:02.475Z,48.85
2022-10-23T14:42:34.417Z,48.44
2022-10-23T14:45:06.216Z,47.85
2022-10-23T14:47:34.178Z,47.26
2022-10-23T14:50:02.130Z,46.61
2022-10-23T14:52:30.056Z,47.36
2022-10-23T14:54:58.108Z,46.68
2022-10-23T14:57:26.053Z,47.59
2022-10-23T14:59:55.444Z,48.36
2022-10-23T15:02:23.429Z,47.53
2022-10-23T15:04:51.372Z,46.41
2022-10-23T15:07:19.723Z,45.68
2022-10-23T15:09:47.667Z,45.96
2022-10-23T15:12:15.592Z,46.31
2022-10-23T15:14:43.540Z,46.15
2022-10-23T15:17:15.623Z,46.84
2022-10-23T15:19:43.860Z,46.83
2022-10-23T15:22:11.793Z,47.04
2022-10-23T15:24:39.734Z,45.37
2022-10-23T15:29:40.696Z,44.70
2022-10-23T15:32:10.490Z,45.08
2022-10-23T15:34:42.760Z,44.40
2022-10-23T15:37:11.896Z,44.91
2022-10-23T15:39:39.893Z,44.58
2022-10-23T15:42:08.518Z,44.48
2022-10-23T15:44:36.609Z,45.00
2022-10-23T15:47:04.857Z,45.40
2022-10-23T15:49:33.294Z,44.77
2022-10-23T15:52:04.226Z,45.16
2022-10-23T15:54:33.124Z,45.75
2022-10-23T15:57:02.132Z,44.67
2022-10-23T15:59:31.604Z,45.33
2022-10-23T16:02:09.010Z,45.07
2022-10-23T16:04:39.663Z,45.29
2022-10-23T16:07:09.161Z,45.25
2022-10-23T16:09:37.319Z,45.22
2022-10-23T16:12:05.929Z,45.32
2022-10-23T16:14:33.868Z,45.15
2022-10-23T16:17:01.779Z,45.52
2022-10-23T16:19:29.835Z,46.61
2022-10-23T16:21:57.789Z,46.30
2022-10-23T16:24:27.097Z,46.09
2022-10-23T16:26:56.461Z,46.55
2022-10-23T16:29:25.711Z,46.66
2022-10-23T16:31:54.872Z,47.47
2022-10-23T16:34:23.032Z,47.58
2022-10-23T16:36:51.094Z,47.97
2022-10-23T16:39:20.669Z,47.80
2022-10-23T16:41:50.019Z,48.10
2022-10-23T16:44:17.944Z,48.11
2022-10-23T16:46:45.965Z,49.31
2022-10-23T16:49:14.478Z,49.03
2022-10-23T16:51:42.602Z,49.58
2022-10-23T16:54:11.336Z,49.75
2022-10-23T16:56:39.441Z,50.30
2022-10-23T16:59:12.032Z,51.31
2022-10-23T17:01:40.226Z,51.90
2022-10-23T17:04:09.635Z,52.53
2022-10-23T17:06:37.860Z,52.30
2022-10-23T17:09:06.600Z,52.47
2022-10-23T17:11:37.578Z,51.35
2022-10-23T17:14:07.563Z,51.47
2022-10-23T17:16:39.425Z,51.10
2022-10-23T17:19:20.980Z,51.22
2022-10-23T17:21:57.551Z,49.45
2022-10-23T17:24:25.606Z,49.03
2022-10-23T17:26:54.181Z,49.16
2022-10-23T17:29:22.200Z,48.40
2022-10-23T17:31:52.026Z,48.23
2022-10-23T17:34:21.981Z,48.26
2022-10-23T17:36:52.264Z,48.18
2022-10-23T17:39:22.872Z,48.23
2022-10-23T17:41:52.490Z,48.33
2022-10-23T17:44:20.472Z,48.25
2022-10-23T17:46:53.936Z,48.69
2022-10-23T17:49:22.647Z,48.88
2022-10-23T17:51:52.794Z,49.09
2022-10-23T17:54:20.746Z,48.61
2022-10-23T17:56:48.715Z,48.92
2022-10-23T17:59:19.308Z,49.22
2022-10-23T18:01:50.500Z,49.39
2022-10-23T18:04:22.020Z,49.29
2022-10-23T18:06:52.722Z,49.02
2022-10-23T18:09:22.274Z,49.37
2022-10-23T18:11:50.565Z,49.14
2022-10-23T18:14:20.344Z,48.58
2022-10-23T18:16:48.483Z,48.72
2022-10-23T18:19:18.427Z,48.74
2022-10-23T18:21:48.581Z,49.00
2022-10-23T18:24:17.385Z,49.11
2022-10-23T18:26:47.914Z,49.24
2022-10-23T18:29:17.501Z,50.10
2022-10-23T18:31:48.168Z,51.16
2022-10-23T18:34:21.851Z,51.12
2022-10-23T18:36:52.346Z,51.51
2022-10-23T18:39:23.100Z,53.05
2022-10-23T18:41:53.122Z,54.18
2022-10-23T18:44:23.420Z,54.97
2022-10-23T18:46:52.425Z,54.67
2022-10-23T18:49:21.261Z,55.72
2022-10-23T18:51:49.891Z,56.50
2022-10-23T18:54:21.188Z,56.59
2022-10-23T18:56:49.842Z,58.66
2022-10-23T18:59:21.670Z,60.90
2022-10-23T19:01:51.078Z,60.50
2022-10-23T19:04:19.641Z,62.37
2022-10-23T19:06:51.411Z,66.00
2022-10-23T19:09:21.345Z,64.31
2022-10-23T19:11:49.496Z,63.82
2022-10-23T19:14:17.539Z,63.64
2022-10-23T19:16:49.494Z,67.03
2022-10-23T19:19:21.150Z,68.35
2022-10-23T19:21:50.439Z,71.20
2022-10-23T19:24:28.600Z,69.83
2022-10-23T19:26:57.756Z,69.99
2022-10-23T19:29:28.347Z,73.02
2022-10-23T19:31:56.908Z,72.61
2022-10-23T19:34:27.648Z,71.72
2022-10-23T19:36:56.167Z,73.69
2022-10-23T19:39:27.927Z,73.97
2022-10-23T19:41:56.662Z,72.92
2022-10-23T19:44:28.078Z,72.37
2022-10-23T19:46:56.199Z,75.57
2022-10-23T19:49:24.533Z,78.92
2022-10-23T19:51:52.710Z,80.56
2022-10-23T19:54:21.465Z,84.67
2022-10-23T19:56:51.021Z,79.57
2022-10-23T19:59:19.553Z,77.12
2022-10-23T20:01:51.193Z,76.24
2022-10-23T20:04:19.810Z,76.23
2022-10-23T20:06:48.605Z,72.30
2022-10-23T20:09:16.734Z,70.70
2022-10-23T20:11:45.475Z,68.38
2022-10-23T20:14:19.055Z,64.19
2022-10-23T20:16:51.147Z,61.11
2022-10-23T20:19:23.352Z,57.42
2022-10-23T20:21:51.782Z,56.39
2022-10-23T20:24:21.311Z,55.42
2022-10-23T20:26:51.159Z,54.93
2022-10-23T20:29:21.195Z,53.52
2022-10-23T20:31:49.757Z,52.48
2022-10-23T20:34:19.091Z,51.89
2022-10-23T20:36:48.970Z,51.35
2022-10-23T20:39:19.384Z,51.04
2022-10-23T20:41:48.032Z,50.85
2022-10-23T20:44:20.436Z,51.00
2022-10-23T20:46:48.992Z,50.82
2022-10-23T20:49:17.942Z,50.97
2022-10-23T20:51:46.603Z,50.65
2022-10-23T20:54:14.519Z,51.17
2022-10-23T20:56:42.433Z,50.32
2022-10-23T20:59:13.171Z,50.57
2022-10-23T21:01:44.522Z,49.93
2022-10-23T21:04:13.884Z,50.37
2022-10-23T21:06:57.694Z,50.39
2022-10-23T21:09:31.501Z,50.59
2022-10-23T21:12:02.064Z,50.50
2022-10-23T21:14:30.437Z,50.45
2022-10-23T21:16:59.807Z,47.28
2022-10-23T21:19:27.763Z,48.44
2022-10-23T21:21:55.732Z,48.84
2022-10-23T21:24:24.164Z,48.29
2022-10-23T21:26:54.839Z,48.17
2022-10-23T21:29:22.785Z,48.67
2022-10-23T21:31:55.077Z,48.51
2022-10-23T21:34:24.981Z,48.73
2022-10-23T21:37:11.797Z,49.30
2022-10-23T21:39:40.895Z,49.03
2022-10-23T21:42:09.717Z,48.44
2022-10-23T21:44:37.706Z,48.71
2022-10-23T21:47:05.966Z,49.30
2022-10-23T21:49:35.423Z,48.87
2022-10-23T21:52:06.346Z,48.80
2022-10-23T21:54:34.317Z,48.83
2022-10-23T21:57:03.279Z,48.83
2022-10-23T21:59:33.106Z,49.10
2022-10-23T22:02:03.542Z,49.05
2022-10-23T22:04:31.589Z,49.11
2022-10-23T22:07:03.828Z,48.89
2022-10-23T22:09:35.252Z,48.88
2022-10-23T22:12:03.243Z,48.76
2022-10-23T22:14:31.274Z,49.05
2022-10-23T22:16:59.518Z,49.07
2022-10-23T22:19:27.449Z,49.43
2022-10-23T22:21:55.476Z,49.71
2022-10-23T22:24:25.584Z,49.21
2022-10-23T22:26:55.455Z,50.05
2022-10-23T22:29:25.840Z,50.08
2022-10-23T22:31:57.006Z,50.55
2022-10-23T22:34:48.381Z,50.39
2022-10-23T22:37:14.550Z,50.59
2022-10-23T22:40:01.389Z,50.90
2022-10-23T22:42:29.326Z,51.17
2022-10-23T22:44:57.236Z,51.40
2022-10-23T22:47:25.227Z,51.70
2022-10-23T22:49:53.121Z,52.18
2022-10-23T22:52:21.170Z,51.98
2022-10-23T22:54:50.488Z,52.16
2022-10-23T22:57:18.424Z,51.85
2022-10-23T22:59:46.615Z,52.54
2022-10-23T23:02:14.566Z,52.36
2022-10-23T23:04:45.144Z,52.46
2022-10-23T23:07:13.985Z,51.94
2022-10-23T23:09:45.400Z,51.47
2022-10-23T23:12:15.526Z,51.23
2022-10-23T23:14:43.674Z,51.54
2022-10-23T23:17:12.417Z,51.04
2022-10-23T23:19:40.890Z,51.15
2022-10-23T23:22:08.838Z,51.36
2022-10-23T23:24:36.771Z,51.36
2022-10-23T23:27:04.946Z,50.30
2022-10-23T23:29:36.337Z,50.32
2022-10-23T23:32:06.106Z,50.38
2022-10-23T23:34:36.740Z,50.20
2022-10-23T23:37:04.722Z,50.06
2022-10-23T23:39:32.727Z,50.41
2022-10-23T23:42:01.686Z,50.40
2022-10-23T23:44:29.611Z,49.92
2022-10-23T23:46:58.918Z,50.11
2022-10-23T23:49:26.810Z,49.94
2022-10-23T23:51:54.759Z,49.61
2022-10-23T23:54:22.686Z,49.65
2022-10-23T23:56:50.636Z,49.05
2022-10-23T23:59:20.667Z,49.25
